Burney, Indiana
Current Conditions -  °F | °C
As of 1:45 PM on Friday 24 Oct 2014 (Local Time) from KBAK Reporting Station
Clear Clear  
Wind Chill: 63°   Ceiling: Unl
Heat Index: 63°   Visibility: 10mi
Dew Point: 45°   Wind: 6mph
Humidity: 52%   Direction: 210°SSW
Pressure: 30.08"   Gusts: NA
Location:  39.3206°N, 85.4768°W
Report Text: KBAK 241745Z 21005KT 10SM SKC 17/07 A3008
Loading
Personal Weather Stations






























Interactive Weather Map
Tropical Storm Tracking
New forecast layout! Learn more

10-Day Weather Forecast

Advertisements
Track Severe Weather on mobile